Time;durP1;ratioP1;P1;durP2;ratioP2;P2;SDS_P1;SDS_P2;PMS_P1;PMS_P2;Temp;Humidity;BMP_temperature;BMP_pressure;BME280_temperature;BME280_humidity;BME280_pressure;Samples;Min_cycle;Max_cycle;Signal;HPM_P1;HPM_P2
2022/04/10 00:00:39;;;;;;;12.15;2.00;;;6.60;99.90;;;;;;5046223;28;20032;-67
2022/04/10 00:03:05;;;;;;;13.13;3.17;;;6.50;99.90;;;;;;5046687;28;20024;-69
2022/04/10 00:05:31;;;;;;;15.32;3.90;;;6.50;99.90;;;;;;5046149;28;20165;-67
2022/04/10 00:07:56;;;;;;;17.55;3.75;;;6.50;99.90;;;;;;5048603;28;20108;-64
2022/04/10 00:10:22;;;;;;;10.80;2.67;;;6.50;99.90;;;;;;5051965;28;20404;-70
2022/04/10 00:12:47;;;;;;;13.35;2.97;;;6.50;99.90;;;;;;5054310;28;20024;-66
2022/04/10 00:15:14;;;;;;;18.67;4.63;;;6.50;99.90;;;;;;5054450;28;20029;-70
2022/04/10 00:17:40;;;;;;;18.38;5.03;;;6.60;99.90;;;;;;5055486;28;20453;-70
2022/04/10 00:20:06;;;;;;;13.85;3.78;;;6.60;99.90;;;;;;5054564;28;20025;-67
2022/04/10 00:22:39;;;;;;;14.55;3.65;;;6.60;99.90;;;;;;5052503;28;20060;-69
2022/04/10 00:25:07;;;;;;;12.18;3.00;;;6.60;99.90;;;;;;5054533;28;20445;-66
2022/04/10 00:27:33;;;;;;;10.27;2.50;;;6.70;99.90;;;;;;5054121;28;20043;-68
2022/04/10 00:29:59;;;;;;;17.92;5.07;;;6.70;99.90;;;;;;5054263;28;20055;-67
2022/04/10 00:32:27;;;;;;;18.35;4.10;;;6.70;99.90;;;;;;5053399;28;20060;-64
2022/04/10 00:34:53;;;;;;;10.95;3.38;;;6.60;99.90;;;;;;5054170;28;20104;-64
2022/04/10 00:37:19;;;;;;;14.88;4.07;;;6.60;99.90;;;;;;5052865;28;20066;-68
2022/04/10 00:39:45;;;;;;;17.75;3.25;;;6.60;99.90;;;;;;5054353;28;20374;-67
2022/04/10 00:42:11;;;;;;;9.70;2.50;;;6.50;99.90;;;;;;5052792;28;20036;-68
2022/04/10 00:44:36;;;;;;;12.57;3.90;;;6.50;99.90;;;;;;5053836;28;20024;-67
2022/04/10 00:47:03;;;;;;;8.60;1.83;;;6.50;99.90;;;;;;5054501;28;20029;-69
2022/04/10 00:49:29;;;;;;;9.98;2.50;;;6.50;99.90;;;;;;5053814;28;20128;-67
2022/04/10 00:51:56;;;;;;;11.93;2.70;;;6.40;99.90;;;;;;5054119;28;20424;-68
2022/04/10 00:54:25;;;;;;;5.97;2.03;;;6.30;99.90;;;;;;5053614;28;20025;-66
2022/04/10 00:56:52;;;;;;;9.05;1.80;;;6.30;99.90;;;;;;5052493;28;20025;-69
2022/04/10 00:59:17;;;;;;;10.15;2.30;;;6.30;99.90;;;;;;5053341;28;20028;-69
2022/04/10 01:01:44;;;;;;;8.25;1.77;;;6.30;99.90;;;;;;5054616;28;20036;-66
2022/04/10 01:04:12;;;;;;;16.40;2.75;;;6.20;99.90;;;;;;5053893;28;20013;-66
2022/04/10 01:06:38;;;;;;;4.55;1.90;;;6.20;99.90;;;;;;5053361;28;20029;-68
2022/04/10 01:09:04;;;;;;;6.72;2.13;;;6.10;99.90;;;;;;5052780;28;20025;-65
2022/04/10 01:11:32;;;;;;;9.82;1.75;;;6.10;99.90;;;;;;5053386;28;20465;-68
2022/04/10 01:13:58;;;;;;;10.63;1.85;;;6.10;99.90;;;;;;5052591;28;20538;-67
2022/04/10 01:16:24;;;;;;;7.40;1.60;;;6.00;99.90;;;;;;5053536;28;20047;-67
2022/04/10 01:18:50;;;;;;;5.32;1.60;;;6.00;99.90;;;;;;5053496;28;20017;-67
2022/04/10 01:21:26;;;;;;;11.20;2.13;;;6.00;99.90;;;;;;5052746;28;20029;-64
2022/04/10 01:23:54;;;;;;;14.25;2.42;;;6.00;99.90;;;;;;5036855;28;20025;-69
2022/04/10 01:26:23;;;;;;;11.80;1.85;;;6.00;99.90;;;;;;5052976;28;20045;-69
2022/04/10 01:29:04;;;;;;;10.30;2.03;;;6.00;99.90;;;;;;5053444;28;20039;-67
2022/04/10 01:31:32;;;;;;;8.80;1.67;;;5.90;99.90;;;;;;5052080;28;20035;-67
2022/04/10 01:34:00;;;;;;;10.75;1.85;;;5.90;99.90;;;;;;5050914;28;20029;-67
2022/04/10 01:36:27;;;;;;;9.80;1.85;;;5.90;99.90;;;;;;5052162;28;20104;-71
2022/04/10 01:38:55;;;;;;;9.82;2.53;;;5.90;99.90;;;;;;5051905;28;20405;-67
2022/04/10 01:41:22;;;;;;;10.15;1.83;;;5.90;99.90;;;;;;5053070;28;20483;-66
2022/04/10 01:43:49;;;;;;;11.63;1.33;;;5.80;99.90;;;;;;5052413;28;20029;-70
2022/04/10 01:46:16;;;;;;;9.40;1.83;;;5.80;99.90;;;;;;5052745;28;20043;-68
2022/04/10 01:48:42;;;;;;;9.93;1.85;;;5.80;99.90;;;;;;5050599;28;20449;-68
2022/04/10 01:51:08;;;;;;;8.48;1.45;;;5.80;99.90;;;;;;5052887;28;20040;-68
2022/04/10 01:53:34;;;;;;;6.47;1.40;;;5.80;99.90;;;;;;5051924;28;20078;-66
2022/04/10 01:56:01;;;;;;;3.22;1.50;;;5.80;99.90;;;;;;5052974;28;20075;-69
2022/04/10 01:58:26;;;;;;;12.23;2.30;;;5.80;99.90;;;;;;5052410;28;20059;-68
2022/04/10 02:00:52;;;;;;;8.23;1.58;;;5.90;99.90;;;;;;5052936;28;20056;-65
2022/04/10 02:03:18;;;;;;;9.18;1.92;;;5.90;99.90;;;;;;5052583;28;20453;-67
2022/04/10 02:05:43;;;;;;;18.55;6.25;;;5.90;99.90;;;;;;5052011;28;20432;-69
2022/04/10 02:08:09;;;;;;;10.07;1.90;;;6.00;99.90;;;;;;5052189;28;20036;-66
2022/04/10 02:10:34;;;;;;;9.15;2.55;;;6.00;99.90;;;;;;5052423;28;20082;-67
2022/04/10 02:13:00;;;;;;;13.80;4.97;;;6.00;99.90;;;;;;5052392;28;20032;-69
2022/04/10 02:15:26;;;;;;;21.38;7.40;;;6.00;99.90;;;;;;5052040;28;20484;-67
2022/04/10 02:17:52;;;;;;;14.77;4.18;;;6.00;99.90;;;;;;5051874;28;20530;-66
2022/04/10 02:20:17;;;;;;;13.68;3.47;;;6.00;99.90;;;;;;5052325;28;20064;-67
2022/04/10 02:22:43;;;;;;;12.20;3.35;;;6.10;99.90;;;;;;5052125;28;20056;-65
2022/04/10 02:25:09;;;;;;;18.25;2.88;;;6.10;99.90;;;;;;5051685;28;20033;-68
2022/04/10 02:27:35;;;;;;;11.15;1.90;;;6.10;99.90;;;;;;5051822;28;20037;-67
2022/04/10 02:30:00;;;;;;;13.82;3.50;;;6.00;99.90;;;;;;5052131;28;20087;-67
2022/04/10 02:32:26;;;;;;;14.95;4.53;;;6.10;99.90;;;;;;5052065;28;20025;-68
2022/04/10 02:34:52;;;;;;;11.63;3.10;;;6.00;99.90;;;;;;5052026;28;20100;-69
2022/04/10 02:37:17;;;;;;;9.63;2.42;;;6.00;99.90;;;;;;5051937;28;20518;-64
2022/04/10 02:39:44;;;;;;;7.35;1.80;;;6.10;99.90;;;;;;5050397;28;20032;-68
2022/04/10 02:42:09;;;;;;;7.40;2.25;;;6.10;99.90;;;;;;5052044;28;20025;-65
2022/04/10 02:44:35;;;;;;;9.00;2.00;;;6.10;99.90;;;;;;5051685;28;20047;-67
2022/04/10 02:47:00;;;;;;;12.93;2.35;;;6.10;99.90;;;;;;5051777;28;20163;-67
2022/04/10 02:49:26;;;;;;;16.65;4.35;;;6.10;99.90;;;;;;5052177;28;20437;-67
2022/04/10 02:51:51;;;;;;;12.70;2.05;;;6.10;99.90;;;;;;5052676;28;20450;-66
2022/04/10 02:54:17;;;;;;;14.02;3.60;;;6.10;99.90;;;;;;5051794;28;20356;-65
2022/04/10 02:56:43;;;;;;;11.07;3.05;;;6.10;99.90;;;;;;5050794;28;20564;-70
2022/04/10 02:59:08;;;;;;;18.30;5.97;;;6.10;99.90;;;;;;5053137;28;20567;-66
2022/04/10 03:01:35;;;;;;;15.40;3.67;;;6.10;99.90;;;;;;5055524;28;20028;-67
2022/04/10 03:04:00;;;;;;;11.57;2.42;;;6.10;99.90;;;;;;5055736;28;20542;-67
2022/04/10 03:06:26;;;;;;;13.45;3.75;;;6.20;99.90;;;;;;5054782;28;20013;-64
2022/04/10 03:08:52;;;;;;;7.57;2.40;;;6.20;99.90;;;;;;5055798;28;20028;-69
2022/04/10 03:11:18;;;;;;;7.85;1.52;;;6.20;99.90;;;;;;5055038;28;20105;-68
2022/04/10 03:13:45;;;;;;;10.13;2.60;;;6.20;99.90;;;;;;5054198;28;20033;-65
2022/04/10 03:16:10;;;;;;;10.60;2.90;;;6.10;99.90;;;;;;5047764;28;20023;-66
2022/04/10 03:18:36;;;;;;;7.72;1.60;;;6.20;99.90;;;;;;5054686;28;20088;-69
2022/04/10 03:21:02;;;;;;;11.10;3.10;;;6.10;99.90;;;;;;5055956;28;20032;-66
2022/04/10 03:23:28;;;;;;;5.95;1.80;;;6.10;99.90;;;;;;5055653;28;20029;-68
2022/04/10 03:25:53;;;;;;;9.13;1.73;;;6.10;99.90;;;;;;5054992;28;20052;-67
2022/04/10 03:28:19;;;;;;;13.27;4.20;;;6.10;99.90;;;;;;5055494;28;20048;-67
2022/04/10 03:30:45;;;;;;;17.45;5.88;;;6.10;99.90;;;;;;5055052;28;20033;-69
2022/04/10 03:33:10;;;;;;;13.10;3.67;;;6.20;99.90;;;;;;5053639;28;20028;-67
2022/04/10 03:35:36;;;;;;;10.00;1.92;;;6.10;99.90;;;;;;5055672;28;20348;-66
2022/04/10 03:38:02;;;;;;;17.65;4.85;;;6.10;99.90;;;;;;5048980;28;20049;-67
2022/04/10 03:40:27;;;;;;;6.38;2.13;;;6.10;99.90;;;;;;5048776;28;20029;-66
2022/04/10 03:42:53;;;;;;;8.25;2.20;;;6.10;99.90;;;;;;5053916;28;20028;-66
2022/04/10 03:45:19;;;;;;;9.23;2.40;;;6.10;99.90;;;;;;5055202;28;20028;-67
2022/04/10 03:47:47;;;;;;;6.70;2.10;;;6.00;99.90;;;;;;5054772;28;20091;-67
2022/04/10 03:50:12;;;;;;;6.60;1.77;;;6.00;99.90;;;;;;5054765;28;20595;-67
2022/04/10 03:52:38;;;;;;;7.20;2.20;;;6.00;99.90;;;;;;5054843;28;20112;-67
2022/04/10 03:55:04;;;;;;;9.32;2.17;;;6.10;99.90;;;;;;5054905;28;20483;-65
2022/04/10 03:57:30;;;;;;;13.43;2.22;;;6.00;99.90;;;;;;5054416;28;20020;-69
2022/04/10 03:59:56;;;;;;;6.20;1.40;;;6.00;99.90;;;;;;5055315;28;20460;-68
2022/04/10 04:02:22;;;;;;;10.98;2.03;;;5.90;99.90;;;;;;5055016;28;20522;-69
2022/04/10 04:04:50;;;;;;;8.60;1.48;;;5.90;99.90;;;;;;5052711;28;20028;-66
2022/04/10 04:07:15;;;;;;;7.80;1.58;;;5.90;99.90;;;;;;5055226;28;20029;-66
2022/04/10 04:09:41;;;;;;;7.72;2.03;;;5.90;99.90;;;;;;5055570;28;20556;-66
2022/04/10 04:12:07;;;;;;;7.70;1.58;;;6.00;99.90;;;;;;5054390;28;20453;-67
2022/04/10 04:14:32;;;;;;;6.18;2.85;;;5.90;99.90;;;;;;5055402;28;20079;-67
2022/04/10 04:16:59;;;;;;;7.25;1.88;;;6.00;99.90;;;;;;5055081;28;20052;-68
2022/04/10 04:19:24;;;;;;;8.80;1.42;;;6.00;99.90;;;;;;5054875;28;20099;-64
2022/04/10 04:21:50;;;;;;;6.75;1.70;;;6.10;99.90;;;;;;5054907;28;20088;-69
2022/04/10 04:24:15;;;;;;;9.77;1.80;;;6.10;99.90;;;;;;5055040;28;20128;-68
2022/04/10 04:26:41;;;;;;;6.57;1.70;;;6.10;99.90;;;;;;5052491;28;20085;-67
2022/04/10 04:29:06;;;;;;;8.15;1.95;;;6.20;99.90;;;;;;5053920;28;20495;-65
2022/04/10 04:31:32;;;;;;;5.70;1.45;;;6.20;99.90;;;;;;5052755;28;20028;-70
2022/04/10 04:33:58;;;;;;;3.90;1.30;;;6.30;99.90;;;;;;5052528;28;20048;-68
2022/04/10 04:36:23;;;;;;;5.05;1.50;;;6.30;99.90;;;;;;5054503;28;20035;-67
2022/04/10 04:38:49;;;;;;;6.78;1.50;;;6.30;99.90;;;;;;5054316;28;20024;-67
2022/04/10 04:41:14;;;;;;;7.78;2.00;;;6.30;99.90;;;;;;5054119;28;20100;-68
2022/04/10 04:43:40;;;;;;;8.48;1.30;;;6.40;99.90;;;;;;5053855;28;20013;-67
2022/04/10 04:46:05;;;;;;;7.63;1.20;;;6.40;99.90;;;;;;5053718;28;20075;-67
2022/04/10 04:48:31;;;;;;;6.50;1.38;;;6.40;99.90;;;;;;5054421;28;20091;-69
2022/04/10 04:50:57;;;;;;;11.13;1.20;;;6.50;99.90;;;;;;5053596;28;20503;-69
2022/04/10 04:53:22;;;;;;;8.43;1.40;;;6.60;99.90;;;;;;5053639;28;20481;-70
2022/04/10 04:55:48;;;;;;;9.85;1.77;;;6.60;99.90;;;;;;5053861;28;20207;-69
2022/04/10 04:58:13;;;;;;;5.93;1.38;;;6.80;99.90;;;;;;5053709;28;20037;-70
2022/04/10 05:00:39;;;;;;;7.10;1.30;;;6.80;99.90;;;;;;5053145;28;20039;-70
2022/04/10 05:03:05;;;;;;;7.97;1.67;;;6.90;99.90;;;;;;5053947;28;20017;-64
2022/04/10 05:05:31;;;;;;;8.02;1.35;;;7.00;99.90;;;;;;5053969;28;20085;-68
2022/04/10 05:07:56;;;;;;;12.68;2.60;;;7.10;99.90;;;;;;5052668;28;20036;-70
2022/04/10 05:10:22;;;;;;;14.70;3.25;;;7.00;99.90;;;;;;5052889;28;20052;-66
2022/04/10 05:12:47;;;;;;;12.98;2.72;;;6.90;99.90;;;;;;5053471;28;20029;-71
2022/04/10 05:15:13;;;;;;;11.82;2.80;;;6.80;99.90;;;;;;5052858;28;20047;-70
2022/04/10 05:17:38;;;;;;;11.68;3.08;;;6.70;99.90;;;;;;5052449;28;20052;-70
2022/04/10 05:20:05;;;;;;;12.80;3.22;;;6.60;99.90;;;;;;5053340;28;20032;-66
2022/04/10 05:22:30;;;;;;;15.32;4.20;;;6.50;99.90;;;;;;5051074;28;20425;-68
2022/04/10 05:24:56;;;;;;;14.90;3.85;;;6.50;99.90;;;;;;5053064;28;20056;-69
2022/04/10 05:27:21;;;;;;;13.13;3.67;;;6.50;99.90;;;;;;5053293;28;20800;-69
2022/04/10 05:29:47;;;;;;;16.20;4.00;;;6.40;99.90;;;;;;5051422;28;20361;-67
2022/04/10 05:32:13;;;;;;;13.25;2.80;;;6.40;99.90;;;;;;5052522;28;20108;-70
2022/04/10 05:34:38;;;;;;;10.88;2.55;;;6.40;99.90;;;;;;5052937;28;20024;-69
2022/04/10 05:37:04;;;;;;;8.43;2.50;;;6.40;99.90;;;;;;5053040;28;20108;-68
2022/04/10 05:39:30;;;;;;;7.85;1.85;;;6.40;99.90;;;;;;5053409;28;20029;-67
2022/04/10 05:41:58;;;;;;;8.00;1.42;;;6.40;99.90;;;;;;5052708;28;20029;-69
2022/04/10 05:44:23;;;;;;;2.28;0.98;;;6.40;99.90;;;;;;5052122;28;20651;-69
2022/04/10 05:46:49;;;;;;;6.80;1.50;;;6.40;99.90;;;;;;5053066;28;20041;-66
2022/04/10 05:49:16;;;;;;;4.55;1.27;;;6.40;99.90;;;;;;5051754;28;20025;-67
2022/04/10 05:51:42;;;;;;;3.65;1.00;;;6.40;99.90;;;;;;5051219;28;20519;-67
2022/04/10 05:54:07;;;;;;;5.93;1.02;;;6.30;99.90;;;;;;5053140;28;20025;-67
2022/04/10 05:56:33;;;;;;;7.82;1.05;;;6.30;99.90;;;;;;5051055;28;20457;-67
2022/04/10 05:58:58;;;;;;;3.90;1.13;;;6.30;99.90;;;;;;5051280;28;20028;-67
2022/04/10 06:01:24;;;;;;;3.03;1.10;;;6.30;99.90;;;;;;5052798;28;20044;-69
2022/04/10 06:03:49;;;;;;;6.97;1.50;;;6.50;99.90;;;;;;5052140;28;20024;-69
2022/04/10 06:06:15;;;;;;;3.88;1.00;;;6.60;99.90;;;;;;5050348;28;20051;-68
2022/04/10 06:08:41;;;;;;;5.97;1.02;;;6.80;99.90;;;;;;5052753;28;20025;-71
2022/04/10 06:11:07;;;;;;;5.97;1.33;;;6.90;99.90;;;;;;5052187;28;20373;-69
2022/04/10 06:13:32;;;;;;;4.75;1.05;;;7.00;99.90;;;;;;5052379;28;20021;-66
2022/04/10 06:15:58;;;;;;;5.53;1.00;;;7.10;99.90;;;;;;5051933;28;20040;-66
2022/04/10 06:18:23;;;;;;;8.50;1.63;;;7.20;99.90;;;;;;5052267;28;20029;-70
2022/04/10 06:20:49;;;;;;;6.78;0.90;;;7.30;99.90;;;;;;5051981;28;20033;-66
2022/04/10 06:23:15;;;;;;;6.38;1.20;;;7.40;99.90;;;;;;5052773;28;20453;-66
2022/04/10 06:25:41;;;;;;;5.88;1.25;;;7.50;99.90;;;;;;5051982;28;20037;-70
2022/04/10 06:28:06;;;;;;;9.93;1.13;;;7.60;99.90;;;;;;5050708;28;20067;-68
2022/04/10 06:30:43;;;;;;;7.07;1.35;;;7.70;99.90;;;;;;5051104;28;20364;-70
2022/04/10 06:33:09;;;;;;;4.82;1.15;;;7.80;99.90;;;;;;5051945;28;20111;-66
2022/04/10 06:35:34;;;;;;;4.95;1.20;;;7.80;99.90;;;;;;5051992;28;20107;-65
2022/04/10 06:38:06;;;;;;;5.35;1.15;;;7.80;99.90;;;;;;5052312;28;20047;-68
2022/04/10 06:40:34;;;;;;;9.45;1.50;;;7.90;99.90;;;;;;5050823;28;20074;-67
2022/04/10 06:42:59;;;;;;;4.13;1.10;;;7.90;99.90;;;;;;5052004;28;20094;-66
2022/04/10 06:45:25;;;;;;;2.53;1.13;;;8.00;99.90;;;;;;5050918;28;20029;-69
2022/04/10 06:47:50;;;;;;;6.13;1.13;;;8.20;99.90;;;;;;5052124;28;20119;-68
2022/04/10 06:50:16;;;;;;;6.53;1.85;;;8.40;99.90;;;;;;5051529;28;20029;-69
2022/04/10 06:52:48;;;;;;;4.70;1.13;;;8.50;99.90;;;;;;5052237;28;20059;-70
2022/04/10 06:55:13;;;;;;;8.32;1.98;;;8.60;99.90;;;;;;5051689;28;20453;-69
2022/04/10 06:57:39;;;;;;;10.45;1.42;;;8.70;99.90;;;;;;5051158;28;20039;-69
2022/04/10 07:00:05;;;;;;;4.85;1.40;;;8.70;99.90;;;;;;5051889;28;20060;-66
2022/04/10 07:02:32;;;;;;;4.38;1.17;;;8.80;99.90;;;;;;5050346;28;20098;-67
2022/04/10 07:04:58;;;;;;;5.80;1.77;;;8.90;99.90;;;;;;5052298;28;20445;-67
2022/04/10 07:07:23;;;;;;;8.50;1.23;;;9.10;99.90;;;;;;5047110;28;20045;-66
2022/04/10 07:09:49;;;;;;;5.95;1.30;;;9.20;99.90;;;;;;5050627;28;20068;-66
2022/04/10 07:12:14;;;;;;;10.30;1.13;;;9.40;99.90;;;;;;5052145;28;20109;-70
2022/04/10 07:14:40;;;;;;;7.00;1.75;;;9.60;99.90;;;;;;5051333;28;20048;-69
2022/04/10 07:17:06;;;;;;;4.32;1.70;;;9.70;99.90;;;;;;5051584;28;20449;-66
2022/04/10 07:19:31;;;;;;;9.38;1.95;;;9.80;99.90;;;;;;5051625;28;20059;-67
2022/04/10 07:24:41;;;;;;;8.25;1.60;;;9.90;99.90;;;;;;5051667;28;20425;-69
2022/04/10 07:27:07;;;;;;;12.23;1.70;;;10.00;99.90;;;;;;5051265;28;20123;-64
2022/04/10 07:29:32;;;;;;;8.60;1.67;;;10.10;99.90;;;;;;5050419;28;20354;-69
2022/04/10 07:31:58;;;;;;;10.45;2.85;;;10.20;99.90;;;;;;5050260;28;20025;-66
2022/04/10 07:34:23;;;;;;;8.98;1.40;;;10.40;99.90;;;;;;5049950;28;20029;-65
2022/04/10 07:36:49;;;;;;;8.65;1.25;;;10.80;99.90;;;;;;5051040;28;20041;-67
2022/04/10 07:39:15;;;;;;;4.55;1.15;;;11.30;99.90;;;;;;5049757;28;20025;-68
2022/04/10 07:41:40;;;;;;;8.70;1.33;;;11.70;99.90;;;;;;5051777;28;20032;-69
2022/04/10 07:44:06;;;;;;;5.47;1.00;;;12.40;99.90;;;;;;5050854;28;20028;-70
2022/04/10 07:49:15;;;;;;;5.93;1.25;;;13.60;99.70;;;;;;5055095;28;20040;-66
2022/04/10 07:51:41;;;;;;;5.50;0.95;;;14.00;98.70;;;;;;5055262;28;20365;-67
2022/04/10 07:54:06;;;;;;;5.80;1.20;;;14.50;97.90;;;;;;5054563;28;20094;-69
2022/04/10 07:56:32;;;;;;;8.95;1.65;;;15.10;97.00;;;;;;5053593;28;20017;-67
2022/04/10 07:58:58;;;;;;;8.40;2.17;;;15.70;96.50;;;;;;5055091;28;20021;-68
2022/04/10 08:01:24;;;;;;;8.15;1.60;;;16.30;95.40;;;;;;5054349;28;20021;-67
2022/04/10 08:03:51;;;;;;;6.55;1.70;;;16.80;94.40;;;;;;5053804;28;20021;-70
2022/04/10 08:06:18;;;;;;;6.40;2.42;;;17.20;93.20;;;;;;5050719;28;20028;-68
2022/04/10 08:08:44;;;;;;;4.13;1.27;;;17.30;92.90;;;;;;5054004;28;20033;-70
2022/04/10 08:11:10;;;;;;;5.28;1.58;;;17.70;92.10;;;;;;5054594;28;20025;-70
2022/04/10 08:13:35;;;;;;;5.82;1.45;;;18.20;91.70;;;;;;5055210;28;20029;-67
2022/04/10 08:16:01;;;;;;;10.05;2.03;;;18.30;91.20;;;;;;5054249;28;20082;-65
2022/04/10 08:18:27;;;;;;;6.78;1.70;;;18.70;90.80;;;;;;5054782;28;20117;-71
2022/04/10 08:20:53;;;;;;;9.35;1.77;;;19.30;89.60;;;;;;5053837;28;20104;-68
2022/04/10 08:23:18;;;;;;;6.45;1.48;;;19.50;88.80;;;;;;5054802;28;20446;-68
2022/04/10 08:25:44;;;;;;;9.70;1.55;;;19.00;88.40;;;;;;5054385;28;20064;-65
2022/04/10 08:28:09;;;;;;;12.20;2.65;;;18.90;88.50;;;;;;5053153;28;20037;-67
2022/04/10 08:30:35;;;;;;;5.15;1.00;;;19.20;87.90;;;;;;5053986;28;20412;-67
2022/04/10 08:33:00;;;;;;;7.55;1.30;;;19.60;86.20;;;;;;5052714;28;20520;-68
2022/04/10 08:35:26;;;;;;;7.95;1.48;;;20.00;85.10;;;;;;5053731;28;20033;-68
2022/04/10 08:37:52;;;;;;;6.85;1.60;;;20.50;84.10;;;;;;5052591;28;20449;-67
2022/04/10 08:40:18;;;;;;;9.40;1.52;;;21.00;82.00;;;;;;5051893;28;20021;-67
2022/04/10 08:42:44;;;;;;;7.43;1.20;;;21.50;81.30;;;;;;5054552;28;20221;-72
2022/04/10 08:45:10;;;;;;;5.85;1.27;;;22.10;79.50;;;;;;5054628;28;20036;-67
2022/04/10 08:47:42;;;;;;;8.57;1.50;;;22.40;77.10;;;;;;5053204;28;20025;-70
2022/04/10 08:50:09;;;;;;;5.43;1.45;;;22.60;75.80;;;;;;5053840;28;20021;-68
2022/04/10 08:52:35;;;;;;;9.30;1.70;;;22.80;74.40;;;;;;5052660;28;20032;-67
2022/04/10 08:55:01;;;;;;;4.53;1.10;;;22.80;73.00;;;;;;5053023;28;20024;-68
2022/04/10 08:57:26;;;;;;;4.60;1.10;;;22.00;73.40;;;;;;5053927;28;20021;-68
2022/04/10 08:59:56;;;;;;;5.25;1.30;;;21.80;73.40;;;;;;5054442;28;20468;-67
2022/04/10 09:02:22;;;;;;;5.10;0.98;;;21.90;73.80;;;;;;5052568;28;20029;-68
2022/04/10 09:04:48;;;;;;;7.05;1.30;;;22.20;72.80;;;;;;5054350;28;20078;-68
2022/04/10 09:07:13;;;;;;;6.20;1.48;;;21.70;72.20;;;;;;5055063;28;20040;-68
2022/04/10 09:09:52;;;;;;;5.75;1.10;;;21.50;73.00;;;;;;5064684;28;20013;-71
2022/04/10 09:12:18;;;;;;;7.55;1.15;;;21.60;73.00;;;;;;5057199;28;20119;-68
2022/04/10 09:14:44;;;;;;;6.13;1.35;;;21.90;72.90;;;;;;5053347;28;20092;-69
2022/04/10 09:17:18;;;;;;;6.38;1.50;;;21.70;72.10;;;;;;5053644;28;20506;-70
2022/04/10 09:19:49;;;;;;;4.22;1.27;;;21.00;72.90;;;;;;5054004;28;20033;-67
2022/04/10 09:22:33;;;;;;;5.40;1.20;;;20.20;73.70;;;;;;5047338;28;20047;-67
2022/04/10 09:25:13;;;;;;;4.60;1.30;;;20.00;75.00;;;;;;5033588;28;20417;-68
2022/04/10 09:27:47;;;;;;;5.78;0.98;;;20.80;74.60;;;;;;5045875;28;20029;-66
2022/04/10 09:30:17;;;;;;;3.75;1.20;;;21.30;73.50;;;;;;5053015;28;20025;-68
2022/04/10 09:32:48;;;;;;;4.32;0.95;;;21.20;72.80;;;;;;5066297;28;20025;-69
2022/04/10 09:35:21;;;;;;;5.18;1.10;;;20.80;73.40;;;;;;5060067;28;20423;-65
2022/04/10 09:37:55;;;;;;;5.25;1.20;;;21.20;73.20;;;;;;5058887;28;20028;-68
2022/04/10 09:40:26;;;;;;;3.20;0.82;;;21.80;71.50;;;;;;5057361;28;20024;-67
2022/04/10 09:43:03;;;;;;;6.25;1.58;;;21.60;70.80;;;;;;5053637;28;20108;-69
2022/04/10 09:45:29;;;;;;;8.38;1.17;;;21.40;70.00;;;;;;5065171;28;20032;-66
2022/04/10 09:47:56;;;;;;;3.40;1.00;;;21.20;68.00;;;;;;5070500;28;20071;-66
2022/04/10 09:50:32;;;;;;;2.15;0.80;;;20.60;68.90;;;;;;5054031;28;20023;-69
2022/04/10 09:53:05;;;;;;;8.30;0.90;;;20.50;67.70;;;;;;5050935;28;20017;-66
2022/04/10 09:55:38;;;;;;;9.15;0.93;;;21.10;67.90;;;;;;5060071;28;20472;-71
2022/04/10 09:58:10;;;;;;;6.43;1.30;;;21.40;67.60;;;;;;5073435;28;20025;-69
2022/04/10 10:00:39;;;;;;;3.97;0.82;;;21.50;67.40;;;;;;5071712;28;20051;-66
2022/04/10 10:03:06;;;;;;;5.95;0.82;;;22.10;64.50;;;;;;5064568;28;20030;-68
2022/04/10 10:05:32;;;;;;;6.28;1.00;;;22.90;62.50;;;;;;5053160;28;20021;-67
2022/04/10 10:07:58;;;;;;;5.25;0.82;;;23.10;61.70;;;;;;5052756;28;20125;-68
2022/04/10 10:10:26;;;;;;;4.85;1.23;;;22.70;63.20;;;;;;5049138;28;20025;-68
2022/04/10 10:12:52;;;;;;;3.95;1.30;;;22.80;63.00;;;;;;5050781;28;20115;-65
2022/04/10 10:15:19;;;;;;;6.97;1.50;;;23.40;62.80;;;;;;5052863;28;20077;-67
2022/04/10 10:17:45;;;;;;;7.57;1.35;;;23.60;62.30;;;;;;5052767;28;20115;-66
2022/04/10 10:20:11;;;;;;;4.25;1.23;;;23.30;62.30;;;;;;5048874;28;20028;-66
2022/04/10 10:22:37;;;;;;;6.22;1.35;;;23.50;61.90;;;;;;5062506;28;20074;-67
2022/04/10 10:25:12;;;;;;;5.15;0.95;;;23.60;61.10;;;;;;5072779;28;20031;-66
2022/04/10 10:27:47;;;;;;;4.05;1.13;;;23.60;60.70;;;;;;5055456;28;20033;-65
2022/04/10 10:30:25;;;;;;;6.32;1.20;;;23.70;59.90;;;;;;5050223;28;20098;-65
2022/04/10 10:32:56;;;;;;;7.22;2.83;;;24.00;60.00;;;;;;5052608;28;20021;-67
2022/04/10 10:35:38;;;;;;;5.27;2.10;;;24.60;60.20;;;;;;5060738;28;20108;-68
2022/04/10 10:38:22;;;;;;;4.32;1.40;;;25.00;58.30;;;;;;5051470;28;20035;-71
2022/04/10 10:40:52;;;;;;;5.05;1.33;;;25.40;57.00;;;;;;5032976;28;20022;-69
2022/04/10 10:43:20;;;;;;;3.97;1.15;;;25.90;58.30;;;;;;5037106;28;20028;-69
2022/04/10 10:45:48;;;;;;;7.65;1.98;;;26.30;55.70;;;;;;5032689;28;20107;-70
2022/04/10 10:48:32;;;;;;;5.57;2.03;;;26.60;56.00;;;;;;5032582;28;20039;-68
2022/04/10 10:51:09;;;;;;;7.97;1.50;;;27.00;55.70;;;;;;5064860;28;20066;-69
2022/04/10 10:53:47;;;;;;;5.22;1.02;;;27.50;55.60;;;;;;5053364;28;20044;-65
2022/04/10 10:56:14;;;;;;;5.05;1.13;;;27.70;52.90;;;;;;5052300;28;20021;-66
2022/04/10 10:58:40;;;;;;;7.97;1.67;;;27.70;53.60;;;;;;5046541;28;20342;-67
2022/04/10 11:01:07;;;;;;;5.45;1.48;;;27.70;52.50;;;;;;5042017;28;20029;-68
2022/04/10 11:03:53;;;;;;;6.47;1.70;;;27.50;52.20;;;;;;5051340;28;20102;-66
2022/04/10 11:06:21;;;;;;;5.22;1.35;;;27.20;53.10;;;;;;5051267;28;20120;-69
2022/04/10 11:08:46;;;;;;;4.07;1.33;;;27.10;52.80;;;;;;5052345;28;20037;-69
2022/04/10 11:11:18;;;;;;;5.80;1.17;;;26.60;51.10;;;;;;5052564;28;20048;-68
2022/04/10 11:13:46;;;;;;;3.92;1.58;;;26.40;52.00;;;;;;5052399;28;20017;-68
2022/04/10 11:16:13;;;;;;;4.78;0.93;;;26.50;51.70;;;;;;5050757;28;20530;-65
2022/04/10 11:18:43;;;;;;;9.30;1.67;;;26.80;51.40;;;;;;5052254;28;20025;-64
2022/04/10 11:21:16;;;;;;;4.80;1.35;;;27.10;51.80;;;;;;5054822;28;20025;-68
2022/04/10 11:23:45;;;;;;;3.72;1.10;;;26.90;50.60;;;;;;5054664;28;20075;-68
2022/04/10 11:26:16;;;;;;;5.05;1.67;;;26.90;49.20;;;;;;5057254;28;20049;-66
2022/04/10 11:28:55;;;;;;;2.97;1.30;;;26.80;50.90;;;;;;5056293;28;20461;-67
2022/04/10 11:31:40;;;;;;;4.03;0.98;;;26.80;48.60;;;;;;5056222;28;20055;-70
2022/04/10 11:34:12;;;;;;;8.85;1.42;;;26.80;49.10;;;;;;5056337;28;20582;-66
2022/04/10 11:36:52;;;;;;;1.90;0.82;;;26.70;50.30;;;;;;5051805;28;20067;-68
2022/04/10 11:39:29;;;;;;;6.50;1.08;;;26.90;49.10;;;;;;5038627;28;20024;-68
2022/04/10 11:42:05;;;;;;;3.78;0.77;;;27.10;46.70;;;;;;5045840;28;20037;-66
2022/04/10 11:44:31;;;;;;;7.22;1.08;;;27.20;47.00;;;;;;5054743;28;20075;-64
2022/04/10 11:47:05;;;;;;;4.22;1.00;;;27.20;48.40;;;;;;5055416;28;20119;-68
2022/04/10 11:49:30;;;;;;;3.28;0.93;;;27.30;49.30;;;;;;5064025;28;20032;-65
2022/04/10 11:52:00;;;;;;;4.10;1.05;;;27.50;48.30;;;;;;5066798;28;20037;-67
2022/04/10 11:54:25;;;;;;;2.88;0.85;;;27.50;47.80;;;;;;5042846;28;20035;-69
2022/04/10 11:56:52;;;;;;;6.97;1.40;;;27.20;47.50;;;;;;5061521;28;20036;-70
2022/04/10 11:59:18;;;;;;;3.35;0.90;;;27.20;47.90;;;;;;5073018;28;20016;-67
2022/04/10 12:01:44;;;;;;;7.80;1.00;;;27.00;47.00;;;;;;5070225;28;20021;-64
2022/04/10 12:04:10;;;;;;;4.80;0.98;;;26.30;47.90;;;;;;5069636;28;20028;-69
2022/04/10 12:06:35;;;;;;;5.63;1.30;;;26.30;48.00;;;;;;5056241;28;20071;-67
2022/04/10 12:09:01;;;;;;;6.05;1.33;;;26.60;48.20;;;;;;5051004;28;20123;-66
2022/04/10 12:11:36;;;;;;;2.78;0.68;;;26.80;46.60;;;;;;5035356;28;20035;-70
2022/04/10 12:14:17;;;;;;;6.07;1.55;;;27.00;47.00;;;;;;5035017;28;20037;-67
2022/04/10 12:16:46;;;;;;;6.50;1.40;;;27.00;48.00;;;;;;5036269;28;20014;-69
2022/04/10 12:19:11;;;;;;;6.13;1.05;;;26.90;47.90;;;;;;5035486;28;20121;-66
2022/04/10 12:21:46;;;;;;;4.72;1.00;;;26.90;47.00;;;;;;5052670;28;20115;-65
2022/04/10 12:24:19;;;;;;;7.65;1.30;;;27.10;47.70;;;;;;5055093;28;20461;-67
2022/04/10 12:26:45;;;;;;;4.53;0.77;;;27.20;46.10;;;;;;5053515;28;20033;-69
2022/04/10 12:29:11;;;;;;;3.58;1.17;;;27.30;46.10;;;;;;5054905;28;20029;-68
2022/04/10 12:31:37;;;;;;;4.78;1.35;;;27.00;46.20;;;;;;5054002;28;20029;-68
2022/04/10 12:34:03;;;;;;;7.07;1.02;;;27.00;47.00;;;;;;5053633;28;20480;-66
2022/04/10 12:36:29;;;;;;;3.72;1.10;;;27.00;46.20;;;;;;5054765;28;20023;-67
2022/04/10 12:38:55;;;;;;;7.50;1.45;;;26.80;47.80;;;;;;5054318;28;20187;-66
2022/04/10 12:41:27;;;;;;;6.20;1.33;;;26.80;48.30;;;;;;5053393;28;20018;-66
2022/04/10 12:44:06;;;;;;;6.22;1.23;;;26.40;48.50;;;;;;5038075;28;20026;-65
2022/04/10 12:46:39;;;;;;;9.57;1.00;;;25.80;49.40;;;;;;5031862;28;20018;-66
2022/04/10 12:49:12;;;;;;;3.83;0.98;;;25.30;49.00;;;;;;5034081;28;20083;-69
2022/04/10 12:51:54;;;;;;;7.68;1.60;;;24.80;50.40;;;;;;5034308;28;20044;-67
2022/04/10 12:54:45;;;;;;;6.07;1.27;;;24.20;51.50;;;;;;5034098;28;20025;-65
2022/04/10 12:57:24;;;;;;;4.28;1.33;;;23.60;50.50;;;;;;5034219;28;20515;-66